createdAt,value
2023-01-29T00:02:10.250Z,83.14
2023-01-29T00:04:37.386Z,83.38
2023-01-29T00:07:04.313Z,83.31
2023-01-29T00:09:32.638Z,83.28
2023-01-29T00:11:59.861Z,83.25
2023-01-29T00:14:29.534Z,83.07
2023-01-29T00:16:56.531Z,83.00
2023-01-29T00:19:23.459Z,82.75
2023-01-29T00:21:50.416Z,82.67
2023-01-29T00:24:17.644Z,82.46
2023-01-29T00:26:44.857Z,82.72
2023-01-29T00:29:11.778Z,82.62
2023-01-29T00:31:38.906Z,82.53
2023-01-29T00:34:07.376Z,82.63
2023-01-29T00:36:34.275Z,82.51
2023-01-29T00:39:10.001Z,82.42
2023-01-29T00:41:56.050Z,82.27
2023-01-29T00:44:41.845Z,82.20
2023-01-29T00:47:28.765Z,82.35
2023-01-29T00:49:56.331Z,82.54
2023-01-29T00:52:23.604Z,82.82
2023-01-29T00:54:51.123Z,83.05
2023-01-29T00:57:18.153Z,83.21
2023-01-29T00:59:45.185Z,83.33
2023-01-29T01:02:31.181Z,83.50
2023-01-29T01:04:58.120Z,83.77
2023-01-29T01:07:25.024Z,84.07
2023-01-29T01:10:10.881Z,84.29
2023-01-29T01:12:38.793Z,84.72
2023-01-29T01:15:05.846Z,84.68
2023-01-29T01:17:33.962Z,84.66
2023-01-29T01:20:00.898Z,84.86
2023-01-29T01:22:27.840Z,84.78
2023-01-29T01:24:54.926Z,85.19
2023-01-29T01:27:22.141Z,85.11
2023-01-29T01:29:49.102Z,85.20
2023-01-29T01:32:16.548Z,85.38
2023-01-29T01:34:46.787Z,85.64
2023-01-29T01:37:14.684Z,85.60
2023-01-29T01:39:41.574Z,85.71
2023-01-29T01:42:12.840Z,85.79
2023-01-29T01:44:49.918Z,85.86
2023-01-29T01:47:19.609Z,86.00
2023-01-29T01:49:46.928Z,86.16
2023-01-29T01:52:15.998Z,86.70
2023-01-29T01:54:43.688Z,86.39
2023-01-29T01:57:15.513Z,86.69
2023-01-29T01:59:48.644Z,86.72
2023-01-29T02:02:35.132Z,86.77
2023-01-29T02:05:20.817Z,86.77
2023-01-29T02:08:08.019Z,86.66
2023-01-29T02:10:38.901Z,86.76
2023-01-29T02:13:06.054Z,86.81
2023-01-29T02:15:33.179Z,87.32
2023-01-29T02:18:03.060Z,87.38
2023-01-29T02:20:33.931Z,87.06
2023-01-29T02:23:03.565Z,87.01
2023-01-29T02:25:49.399Z,87.33
2023-01-29T02:28:16.393Z,87.33
2023-01-29T02:30:46.277Z,87.25
2023-01-29T02:33:23.275Z,86.75
2023-01-29T02:36:09.186Z,86.88
2023-01-29T02:38:41.255Z,87.04
2023-01-29T02:41:14.831Z,86.89
2023-01-29T02:43:53.473Z,86.79
2023-01-29T02:46:27.926Z,86.21
2023-01-29T02:48:55.000Z,86.87
2023-01-29T02:51:30.143Z,86.54
2023-01-29T02:54:08.120Z,86.48
2023-01-29T02:56:44.074Z,86.85
2023-01-29T02:59:15.649Z,86.64
2023-01-29T03:01:47.620Z,86.64
2023-01-29T03:04:19.804Z,86.52
2023-01-29T03:07:00.371Z,86.57
2023-01-29T03:09:34.599Z,86.48
2023-01-29T03:12:19.853Z,86.43
2023-01-29T03:15:08.226Z,86.55
2023-01-29T03:17:38.560Z,86.55
2023-01-29T03:20:11.864Z,86.52
2023-01-29T03:22:40.245Z,86.50
2023-01-29T03:25:26.562Z,86.37
2023-01-29T03:28:15.175Z,86.54
2023-01-29T03:31:08.987Z,86.66
2023-01-29T03:34:05.488Z,86.56
2023-01-29T03:36:39.354Z,86.34
2023-01-29T03:39:08.582Z,86.34
2023-01-29T03:41:42.621Z,86.25
2023-01-29T03:44:13.985Z,86.26
2023-01-29T03:46:56.139Z,86.03
2023-01-29T03:49:39.348Z,86.04
2023-01-29T03:52:09.620Z,85.73
2023-01-29T03:54:48.177Z,85.67
2023-01-29T03:57:20.344Z,85.69
2023-01-29T03:59:53.481Z,85.44
2023-01-29T04:02:51.300Z,85.66
2023-01-29T04:05:20.557Z,85.54
2023-01-29T04:08:02.237Z,85.29
2023-01-29T04:10:29.302Z,85.25
2023-01-29T04:12:58.520Z,85.17
2023-01-29T04:15:28.133Z,85.13
2023-01-29T04:17:55.742Z,85.26
2023-01-29T04:20:36.215Z,85.35
2023-01-29T04:23:05.932Z,85.40
2023-01-29T04:25:42.329Z,85.35
2023-01-29T04:28:17.821Z,85.41
2023-01-29T04:31:06.680Z,85.40
2023-01-29T04:33:35.656Z,85.43
2023-01-29T04:36:05.669Z,85.16
2023-01-29T04:38:35.467Z,85.33
2023-01-29T04:41:05.610Z,85.23
2023-01-29T04:43:32.749Z,85.47
2023-01-29T04:45:59.701Z,85.39
2023-01-29T04:48:30.252Z,85.39
2023-01-29T04:51:15.989Z,85.29
2023-01-29T04:53:42.892Z,85.16
2023-01-29T04:56:15.603Z,85.20
2023-01-29T04:58:48.846Z,84.98
2023-01-29T05:01:18.457Z,85.15
2023-01-29T05:03:47.629Z,84.97
2023-01-29T05:06:15.553Z,84.99
2023-01-29T05:08:42.479Z,85.13
2023-01-29T05:11:09.845Z,84.97
2023-01-29T05:13:39.625Z,85.07
2023-01-29T05:16:15.521Z,85.64
2023-01-29T05:18:43.144Z,85.64
2023-01-29T05:21:10.668Z,85.19
2023-01-29T05:23:37.775Z,85.34
2023-01-29T05:26:04.881Z,85.46
2023-01-29T05:28:31.889Z,85.39
2023-01-29T05:30:59.028Z,85.40
2023-01-29T05:33:27.421Z,85.61
2023-01-29T05:35:54.929Z,85.39
2023-01-29T05:38:22.460Z,85.37
2023-01-29T05:40:49.364Z,85.25
2023-01-29T05:43:17.754Z,84.97
2023-01-29T05:45:52.061Z,84.75
2023-01-29T05:48:19.028Z,84.58
2023-01-29T05:50:45.886Z,84.52
2023-01-29T05:53:13.045Z,84.52
2023-01-29T05:55:39.969Z,84.87
2023-01-29T05:58:06.963Z,84.88
2023-01-29T06:00:33.909Z,84.38
2023-01-29T06:03:01.018Z,84.73
2023-01-29T06:05:28.173Z,84.80
2023-01-29T06:07:55.233Z,84.86
2023-01-29T06:10:22.146Z,84.94
2023-01-29T06:12:48.989Z,84.97
2023-01-29T06:15:16.059Z,85.08
2023-01-29T06:17:42.949Z,85.12
2023-01-29T06:20:10.188Z,85.30
2023-01-29T06:22:37.210Z,85.06
2023-01-29T06:25:04.559Z,85.58
2023-01-29T06:27:31.518Z,85.17
2023-01-29T06:29:58.351Z,85.26
2023-01-29T06:32:25.246Z,84.94
2023-01-29T06:34:52.783Z,85.04
2023-01-29T06:37:19.753Z,85.63
2023-01-29T06:39:46.973Z,85.30
2023-01-29T06:42:13.876Z,85.20
2023-01-29T06:44:40.779Z,85.53
2023-01-29T06:47:07.721Z,85.50
2023-01-29T06:49:34.708Z,85.66
2023-01-29T06:52:01.637Z,85.80
2023-01-29T06:54:29.160Z,85.91
2023-01-29T06:56:56.214Z,86.36
2023-01-29T06:59:23.108Z,86.52
2023-01-29T07:01:50.537Z,86.15
2023-01-29T07:04:17.414Z,86.36
2023-01-29T07:06:44.418Z,86.20
2023-01-29T07:09:13.349Z,86.35
2023-01-29T07:11:40.437Z,86.45
2023-01-29T07:14:07.357Z,86.68
2023-01-29T07:16:34.277Z,86.59
2023-01-29T07:19:01.524Z,86.52
2023-01-29T07:21:29.031Z,86.91
2023-01-29T07:23:56.045Z,86.62
2023-01-29T07:26:22.977Z,86.57
2023-01-29T07:28:50.472Z,86.70
2023-01-29T07:31:17.547Z,86.48
2023-01-29T07:33:45.198Z,86.15
2023-01-29T07:36:12.379Z,85.48
2023-01-29T07:38:39.300Z,85.31
2023-01-29T07:41:06.468Z,85.31
2023-01-29T07:43:33.331Z,85.07
2023-01-29T07:46:04.144Z,85.31
2023-01-29T07:48:31.203Z,85.44
2023-01-29T07:50:58.601Z,85.82
2023-01-29T07:53:26.567Z,85.76
2023-01-29T07:55:53.605Z,85.42
2023-01-29T07:58:20.515Z,84.76
2023-01-29T08:00:47.635Z,83.83
2023-01-29T08:03:15.802Z,84.18
2023-01-29T08:05:43.410Z,84.26
2023-01-29T08:08:10.828Z,83.95
2023-01-29T08:10:38.713Z,84.03
2023-01-29T08:13:05.989Z,84.31
2023-01-29T08:15:33.624Z,83.66
2023-01-29T08:18:01.107Z,83.56
2023-01-29T08:20:28.479Z,83.20
2023-01-29T08:23:02.920Z,83.16
2023-01-29T08:25:30.054Z,83.10
2023-01-29T08:27:57.572Z,82.91
2023-01-29T08:30:25.614Z,83.02
2023-01-29T08:32:52.744Z,83.25
2023-01-29T08:35:19.949Z,83.17
2023-01-29T08:37:54.176Z,83.01
2023-01-29T08:40:21.524Z,82.49
2023-01-29T08:42:48.408Z,82.26
2023-01-29T08:45:15.271Z,81.76
2023-01-29T08:47:49.583Z,81.83
2023-01-29T08:50:17.511Z,81.66
2023-01-29T08:52:45.259Z,81.83
2023-01-29T08:55:12.615Z,81.82
2023-01-29T08:57:39.803Z,81.73
2023-01-29T09:00:07.401Z,81.83
2023-01-29T09:02:34.595Z,82.07
2023-01-29T09:05:02.239Z,81.99
2023-01-29T09:07:29.232Z,82.10
2023-01-29T09:09:56.129Z,82.12
2023-01-29T09:12:23.503Z,82.05
2023-01-29T09:14:50.364Z,81.90
2023-01-29T09:17:17.399Z,81.61
2023-01-29T09:19:44.396Z,81.60
2023-01-29T09:22:11.989Z,81.44
2023-01-29T09:24:39.264Z,81.31
2023-01-29T09:27:06.347Z,80.96
2023-01-29T09:29:35.787Z,81.21
2023-01-29T09:32:07.067Z,81.11
2023-01-29T09:34:34.325Z,81.26
2023-01-29T09:37:01.786Z,81.02
2023-01-29T09:39:29.172Z,81.03
2023-01-29T09:42:01.300Z,80.87
2023-01-29T09:44:52.774Z,80.91
2023-01-29T09:47:20.209Z,80.78
2023-01-29T09:49:52.152Z,80.56
2023-01-29T09:52:19.052Z,80.63
2023-01-29T09:55:07.053Z,80.64
2023-01-29T09:57:49.559Z,80.60
2023-01-29T10:00:37.035Z,80.80
2023-01-29T10:03:34.355Z,81.06
2023-01-29T10:06:04.468Z,80.93
2023-01-29T10:08:46.933Z,81.49
2023-01-29T10:11:22.796Z,81.80
2023-01-29T10:13:59.076Z,81.20
2023-01-29T10:16:32.444Z,81.36
2023-01-29T10:18:59.287Z,81.39
2023-01-29T10:21:45.218Z,81.56
2023-01-29T10:24:12.067Z,81.49
2023-01-29T10:26:40.188Z,81.30
2023-01-29T10:29:07.860Z,81.47
2023-01-29T10:31:39.789Z,81.45
2023-01-29T10:34:06.709Z,81.77
2023-01-29T10:36:34.651Z,82.07
2023-01-29T10:39:01.728Z,81.82
2023-01-29T10:41:47.141Z,81.29
2023-01-29T10:44:24.558Z,81.55
2023-01-29T10:46:54.572Z,81.37
2023-01-29T10:49:27.625Z,81.77
2023-01-29T10:51:54.598Z,81.71
2023-01-29T10:54:45.213Z,81.20
2023-01-29T10:57:18.528Z,81.52
2023-01-29T10:59:56.664Z,81.17
2023-01-29T11:02:23.790Z,81.96
2023-01-29T11:04:51.075Z,81.80
2023-01-29T11:07:19.804Z,81.60
2023-01-29T11:10:07.573Z,81.83
2023-01-29T11:12:37.828Z,81.51
2023-01-29T11:15:16.014Z,81.76
2023-01-29T11:18:00.711Z,82.04
2023-01-29T11:20:29.066Z,81.87
2023-01-29T11:22:56.003Z,82.08
2023-01-29T11:25:24.174Z,81.69
2023-01-29T11:27:56.062Z,81.69
2023-01-29T11:30:26.821Z,82.67
2023-01-29T11:33:12.752Z,82.40
2023-01-29T11:35:39.706Z,81.70
2023-01-29T11:38:09.012Z,82.06
2023-01-29T11:40:37.432Z,81.89
2023-01-29T11:43:16.791Z,81.99
2023-01-29T11:45:44.430Z,82.06
2023-01-29T11:48:14.403Z,82.05
2023-01-29T11:50:41.620Z,82.35
2023-01-29T11:53:22.975Z,81.93
2023-01-29T11:55:51.259Z,82.08
2023-01-29T11:58:27.092Z,81.75
2023-01-29T12:00:55.148Z,82.41
2023-01-29T12:03:27.031Z,82.21
2023-01-29T12:06:14.416Z,81.78
2023-01-29T12:08:41.282Z,82.85
2023-01-29T12:11:14.235Z,82.81
2023-01-29T12:13:45.086Z,83.43
2023-01-29T12:16:21.198Z,83.32
2023-01-29T12:18:54.227Z,83.42
2023-01-29T12:21:29.729Z,83.08
2023-01-29T12:24:12.159Z,82.79
2023-01-29T12:26:44.412Z,82.90
2023-01-29T12:29:12.233Z,83.08
2023-01-29T12:31:42.237Z,83.13
2023-01-29T12:34:27.970Z,82.91
2023-01-29T12:36:58.946Z,82.95
2023-01-29T12:39:26.183Z,82.96
2023-01-29T12:42:05.278Z,82.60
2023-01-29T12:44:45.242Z,82.68
2023-01-29T12:47:34.293Z,83.45
2023-01-29T12:50:04.977Z,83.49
2023-01-29T12:52:41.447Z,83.32
2023-01-29T12:55:28.730Z,83.33
2023-01-29T12:58:00.877Z,83.22
2023-01-29T13:00:37.212Z,82.66
2023-01-29T13:03:25.154Z,83.20
2023-01-29T13:05:56.919Z,83.50
2023-01-29T13:08:26.503Z,83.57
2023-01-29T13:10:54.492Z,83.44
2023-01-29T13:13:34.188Z,83.57
2023-01-29T13:16:03.374Z,83.77
2023-01-29T13:18:31.062Z,83.08
2023-01-29T13:20:59.470Z,83.09
2023-01-29T13:23:32.577Z,83.30
2023-01-29T13:25:59.636Z,83.06
2023-01-29T13:28:27.107Z,82.99
2023-01-29T13:31:11.086Z,83.28
2023-01-29T13:33:40.492Z,83.46
2023-01-29T13:36:13.365Z,83.46
2023-01-29T13:38:44.518Z,83.57
2023-01-29T13:41:11.769Z,83.61
2023-01-29T13:43:41.167Z,83.55
2023-01-29T13:46:10.720Z,83.62
2023-01-29T13:48:42.121Z,83.53
2023-01-29T13:51:15.172Z,83.33
2023-01-29T13:53:42.956Z,83.57
2023-01-29T13:56:28.533Z,83.65
2023-01-29T13:58:56.171Z,83.63
2023-01-29T14:01:41.678Z,83.37
2023-01-29T14:04:23.606Z,83.62
2023-01-29T14:06:51.951Z,83.55
2023-01-29T14:09:34.223Z,83.32
2023-01-29T14:12:01.287Z,83.39
2023-01-29T14:14:57.849Z,83.30
2023-01-29T14:17:25.922Z,83.18
2023-01-29T14:20:13.470Z,83.18
2023-01-29T14:22:40.676Z,83.03
2023-01-29T14:25:16.921Z,82.85
2023-01-29T14:27:48.154Z,83.10
2023-01-29T14:30:17.456Z,82.96
2023-01-29T14:32:49.184Z,82.74
2023-01-29T14:35:19.199Z,82.88
2023-01-29T14:37:51.107Z,82.96
2023-01-29T14:40:18.034Z,82.82
2023-01-29T14:42:54.209Z,82.69
2023-01-29T14:45:32.582Z,82.75
2023-01-29T14:48:22.725Z,82.69
2023-01-29T14:50:50.711Z,82.74
2023-01-29T14:53:27.729Z,82.68
2023-01-29T14:55:59.271Z,82.68
2023-01-29T14:58:38.182Z,82.68
2023-01-29T15:01:07.246Z,82.68
2023-01-29T15:03:49.433Z,82.71
2023-01-29T15:06:36.648Z,82.73
2023-01-29T15:09:03.718Z,82.65
2023-01-29T15:11:40.265Z,82.68
2023-01-29T15:14:23.317Z,82.70
2023-01-29T15:16:59.082Z,82.58
2023-01-29T15:19:29.929Z,82.55
2023-01-29T15:22:08.242Z,82.83
2023-01-29T15:24:36.456Z,82.85
2023-01-29T15:27:04.650Z,82.78
2023-01-29T15:29:31.695Z,82.44
2023-01-29T15:31:59.056Z,81.93
2023-01-29T15:34:26.957Z,81.62
2023-01-29T15:36:53.909Z,81.48
2023-01-29T15:39:23.012Z,81.64
2023-01-29T15:41:51.595Z,81.52
2023-01-29T15:44:19.992Z,81.32
2023-01-29T15:46:58.089Z,80.26
2023-01-29T15:49:35.408Z,79.62
2023-01-29T15:52:05.463Z,79.77
2023-01-29T15:54:34.668Z,79.64
2023-01-29T15:57:02.927Z,79.63
2023-01-29T15:59:34.136Z,79.78
2023-01-29T16:02:20.328Z,79.97
2023-01-29T16:04:47.342Z,79.75
2023-01-29T16:07:14.394Z,79.64
2023-01-29T16:09:42.519Z,79.74
2023-01-29T16:12:10.411Z,80.17
2023-01-29T16:14:37.637Z,80.39
2023-01-29T16:17:22.289Z,80.34
2023-01-29T16:19:59.118Z,81.07
2023-01-29T16:22:29.251Z,81.34
2023-01-29T16:24:57.580Z,81.48
2023-01-29T16:27:24.937Z,81.58
2023-01-29T16:29:52.781Z,81.13
2023-01-29T16:32:20.059Z,81.69
2023-01-29T16:34:48.495Z,81.57
2023-01-29T16:37:19.392Z,81.75
2023-01-29T16:39:47.789Z,81.46
2023-01-29T16:42:20.932Z,81.25
2023-01-29T16:44:52.736Z,81.50
2023-01-29T16:47:23.362Z,81.56
2023-01-29T16:49:52.033Z,81.89
2023-01-29T16:52:25.057Z,81.70
2023-01-29T16:54:52.463Z,81.47
2023-01-29T16:57:22.507Z,81.90
2023-01-29T16:59:52.895Z,81.30
2023-01-29T17:02:25.071Z,82.22
2023-01-29T17:04:53.670Z,81.67
2023-01-29T17:07:21.782Z,81.67
2023-01-29T17:09:58.119Z,81.59
2023-01-29T17:12:26.185Z,81.23
2023-01-29T17:14:54.879Z,81.20
2023-01-29T17:17:27.988Z,81.35
2023-01-29T17:19:54.826Z,81.09
2023-01-29T17:22:21.839Z,80.72
2023-01-29T17:24:51.031Z,80.75
2023-01-29T17:27:21.819Z,80.37
2023-01-29T17:29:48.927Z,80.22
2023-01-29T17:32:18.286Z,80.24
2023-01-29T17:34:46.335Z,80.55
2023-01-29T17:37:14.898Z,80.87
2023-01-29T17:39:49.899Z,80.94
2023-01-29T17:42:16.878Z,81.07
2023-01-29T17:44:44.815Z,81.05
2023-01-29T17:47:13.641Z,81.53
2023-01-29T17:49:41.138Z,81.88
2023-01-29T17:52:08.654Z,81.89
2023-01-29T17:54:35.710Z,81.74
2023-01-29T17:57:02.750Z,81.45
2023-01-29T17:59:31.806Z,81.19
2023-01-29T18:01:59.112Z,81.50
2023-01-29T18:04:26.623Z,81.28
2023-01-29T18:06:53.835Z,81.21
2023-01-29T18:09:21.074Z,81.23
2023-01-29T18:11:49.046Z,81.63
2023-01-29T18:14:16.145Z,81.85
2023-01-29T18:16:43.718Z,81.67
2023-01-29T18:19:21.712Z,81.94
2023-01-29T18:21:49.757Z,82.10
2023-01-29T18:24:16.802Z,81.80
2023-01-29T18:26:43.827Z,81.94
2023-01-29T18:29:10.823Z,82.51
2023-01-29T18:31:37.881Z,82.43
2023-01-29T18:34:04.951Z,82.17
2023-01-29T18:36:32.348Z,81.78
2023-01-29T18:38:59.259Z,82.21
2023-01-29T18:41:26.457Z,82.28
2023-01-29T18:43:53.645Z,82.34
2023-01-29T18:46:21.946Z,82.64
2023-01-29T18:48:48.811Z,82.56
2023-01-29T18:51:15.708Z,82.80
2023-01-29T18:53:42.767Z,82.48
2023-01-29T18:56:10.107Z,82.72
2023-01-29T18:58:37.244Z,82.71
2023-01-29T19:01:08.604Z,82.50
2023-01-29T19:03:35.971Z,82.78
2023-01-29T19:06:03.925Z,82.76
2023-01-29T19:08:31.315Z,82.62
2023-01-29T19:11:01.647Z,83.01
2023-01-29T19:13:32.466Z,82.84
2023-01-29T19:15:59.487Z,82.64
2023-01-29T19:18:27.356Z,82.53
2023-01-29T19:20:54.532Z,82.44
2023-01-29T19:23:21.555Z,82.46
2023-01-29T19:25:48.797Z,82.36
2023-01-29T19:28:15.731Z,82.17
2023-01-29T19:30:42.719Z,82.29
2023-01-29T19:33:10.143Z,82.48
2023-01-29T19:35:37.010Z,82.91
2023-01-29T19:38:04.338Z,82.52
2023-01-29T19:40:31.679Z,82.48
2023-01-29T19:42:59.017Z,82.35
2023-01-29T19:45:38.571Z,81.91
2023-01-29T19:48:21.007Z,82.28
2023-01-29T19:50:54.943Z,82.15
2023-01-29T19:53:22.566Z,81.91
2023-01-29T19:56:20.230Z,82.00
2023-01-29T19:58:47.246Z,81.65
2023-01-29T20:01:18.518Z,81.85
2023-01-29T20:03:46.277Z,81.79
2023-01-29T20:06:15.058Z,81.52
2023-01-29T20:08:44.880Z,81.69
2023-01-29T20:11:12.791Z,82.29
2023-01-29T20:13:40.011Z,82.00
2023-01-29T20:16:07.553Z,81.89
2023-01-29T20:18:34.814Z,82.12
2023-01-29T20:21:05.671Z,81.87
2023-01-29T20:23:38.227Z,82.14
2023-01-29T20:26:06.655Z,82.03
2023-01-29T20:28:34.417Z,81.72
2023-01-29T20:31:01.500Z,81.73
2023-01-29T20:33:28.638Z,82.24
2023-01-29T20:36:00.328Z,82.23
2023-01-29T20:38:31.146Z,82.08
2023-01-29T20:41:14.750Z,81.82
2023-01-29T20:43:42.377Z,82.07
2023-01-29T20:46:09.943Z,81.82
2023-01-29T20:48:37.197Z,81.30
2023-01-29T20:51:04.539Z,81.62
2023-01-29T20:53:31.661Z,81.61
2023-01-29T20:55:58.828Z,81.49
2023-01-29T20:58:26.209Z,81.20
2023-01-29T21:00:53.069Z,81.39
2023-01-29T21:03:20.088Z,81.36
2023-01-29T21:05:47.034Z,81.81
2023-01-29T21:08:13.898Z,81.56
2023-01-29T21:10:43.120Z,81.39
2023-01-29T21:13:11.200Z,81.32
2023-01-29T21:15:38.139Z,81.09
2023-01-29T21:18:07.838Z,81.07
2023-01-29T21:20:34.891Z,81.06
2023-01-29T21:23:03.440Z,81.33
2023-01-29T21:25:31.729Z,80.97
2023-01-29T21:27:58.681Z,80.96
2023-01-29T21:30:26.426Z,80.75
2023-01-29T21:32:53.434Z,81.01
2023-01-29T21:35:20.386Z,80.90
2023-01-29T21:37:47.281Z,80.92
2023-01-29T21:40:14.258Z,80.69
2023-01-29T21:42:59.719Z,80.64
2023-01-29T21:45:26.874Z,80.58
2023-01-29T21:47:53.784Z,80.58
2023-01-29T21:50:20.850Z,80.56
2023-01-29T21:52:47.838Z,80.32
2023-01-29T21:55:15.455Z,80.45
2023-01-29T21:57:42.558Z,80.27
2023-01-29T22:00:11.605Z,80.54
2023-01-29T22:02:39.023Z,80.41
2023-01-29T22:05:18.281Z,80.30
2023-01-29T22:07:49.932Z,80.23
2023-01-29T22:10:17.864Z,80.24
2023-01-29T22:12:45.394Z,79.81
2023-01-29T22:15:12.583Z,79.55
2023-01-29T22:17:40.984Z,79.82
2023-01-29T22:20:09.095Z,79.62
2023-01-29T22:22:36.127Z,79.78
2023-01-29T22:25:03.757Z,79.63
2023-01-29T22:27:33.891Z,79.26
2023-01-29T22:30:00.728Z,79.37
2023-01-29T22:32:27.702Z,79.40
2023-01-29T22:34:54.751Z,79.28
2023-01-29T22:37:21.676Z,78.90
2023-01-29T22:39:48.546Z,78.65
2023-01-29T22:42:17.744Z,78.14
2023-01-29T22:44:44.661Z,78.02
2023-01-29T22:47:11.740Z,78.31
2023-01-29T22:49:38.607Z,77.86
2023-01-29T22:52:11.288Z,75.90
2023-01-29T22:54:38.699Z,75.12
2023-01-29T22:57:06.208Z,74.41
2023-01-29T22:59:33.047Z,75.59
2023-01-29T23:02:00.048Z,75.75
2023-01-29T23:04:27.024Z,75.00
2023-01-29T23:06:54.489Z,74.42
2023-01-29T23:09:21.513Z,74.59
2023-01-29T23:11:48.437Z,74.36
2023-01-29T23:14:15.475Z,74.03
2023-01-29T23:16:42.598Z,73.50
2023-01-29T23:19:10.602Z,71.84
2023-01-29T23:21:37.526Z,72.89
2023-01-29T23:24:05.479Z,73.44
2023-01-29T23:26:51.131Z,72.63
2023-01-29T23:29:18.491Z,72.58
2023-01-29T23:31:45.486Z,72.59
2023-01-29T23:34:13.293Z,72.71
2023-01-29T23:36:40.604Z,73.18
2023-01-29T23:39:07.761Z,73.87
2023-01-29T23:41:35.406Z,73.12
2023-01-29T23:44:02.626Z,72.89
2023-01-29T23:46:29.825Z,73.17
2023-01-29T23:48:56.699Z,74.13
2023-01-29T23:51:23.563Z,74.34
2023-01-29T23:53:50.512Z,74.45
2023-01-29T23:56:17.390Z,75.17
2023-01-29T23:58:44.346Z,75.38
